sensor_id;sensor_type;location;lat;lon;timestamp;pressure;altitude;pressure_sealevel;temperature;humidity
48862;BME280;34681;49.188;-0.374;2022-11-28T00:00:59;100925.06;;;13.03;nan
48862;BME280;34681;49.188;-0.374;2022-11-28T00:03:25;100910.09;;;12.97;nan
48862;BME280;34681;49.188;-0.374;2022-11-28T00:05:50;100903.50;;;12.90;nan
48862;BME280;34681;49.188;-0.374;2022-11-28T00:08:16;100894.38;;;12.89;nan
48862;BME280;34681;49.188;-0.374;2022-11-28T00:10:42;100895.31;;;12.98;nan
48862;BME280;34681;49.188;-0.374;2022-11-28T00:13:07;100884.50;;;12.97;nan
48862;BME280;34681;49.188;-0.374;2022-11-28T00:15:33;100888.97;;;12.98;nan
48862;BME280;34681;49.188;-0.374;2022-11-28T00:17:58;100887.94;;;12.99;nan
48862;BME280;34681;49.188;-0.374;2022-11-28T00:20:23;100890.50;;;12.92;nan
48862;BME280;34681;49.188;-0.374;2022-11-28T00:22:49;100888.19;;;12.87;nan
48862;BME280;34681;49.188;-0.374;2022-11-28T00:25:14;100896.28;;;12.89;nan
48862;BME280;34681;49.188;-0.374;2022-11-28T00:27:40;100895.06;;;12.83;nan
48862;BME280;34681;49.188;-0.374;2022-11-28T00:30:06;100895.19;;;12.82;nan
48862;BME280;34681;49.188;-0.374;2022-11-28T00:32:31;100898.09;;;12.80;nan
48862;BME280;34681;49.188;-0.374;2022-11-28T00:34:56;100911.28;;;12.77;nan
48862;BME280;34681;49.188;-0.374;2022-11-28T00:37:22;100917.56;;;12.69;nan
48862;BME280;34681;49.188;-0.374;2022-11-28T00:39:47;100925.63;;;12.71;nan
48862;BME280;34681;49.188;-0.374;2022-11-28T00:42:13;100922.63;;;12.64;nan
48862;BME280;34681;49.188;-0.374;2022-11-28T00:44:40;100909.94;;;12.63;nan
48862;BME280;34681;49.188;-0.374;2022-11-28T00:47:05;100903.91;;;12.59;nan
48862;BME280;34681;49.188;-0.374;2022-11-28T00:49:30;100903.03;;;12.59;nan
48862;BME280;34681;49.188;-0.374;2022-11-28T00:51:56;100902.19;;;12.58;nan
48862;BME280;34681;49.188;-0.374;2022-11-28T00:54:21;100901.44;;;12.56;nan
48862;BME280;34681;49.188;-0.374;2022-11-28T00:56:47;100902.63;;;12.54;nan
48862;BME280;34681;49.188;-0.374;2022-11-28T00:59:12;100901.94;;;12.52;nan
48862;BME280;34681;49.188;-0.374;2022-11-28T01:01:40;100897.22;;;12.62;nan
48862;BME280;34681;49.188;-0.374;2022-11-28T01:04:09;100899.44;;;12.58;nan
48862;BME280;34681;49.188;-0.374;2022-11-28T01:06:37;100882.97;;;12.58;nan
48862;BME280;34681;49.188;-0.374;2022-11-28T01:09:06;100901.16;;;12.59;nan
48862;BME280;34681;49.188;-0.374;2022-11-28T01:11:31;100903.03;;;12.59;nan
48862;BME280;34681;49.188;-0.374;2022-11-28T01:13:59;100896.13;;;12.55;nan
48862;BME280;34681;49.188;-0.374;2022-11-28T01:16:26;100891.56;;;12.46;nan
48862;BME280;34681;49.188;-0.374;2022-11-28T01:18:52;100885.47;;;12.52;nan
48862;BME280;34681;49.188;-0.374;2022-11-28T01:21:18;100890.38;;;12.48;nan
48862;BME280;34681;49.188;-0.374;2022-11-28T01:23:44;100883.75;;;12.51;nan
48862;BME280;34681;49.188;-0.374;2022-11-28T01:26:15;100865.41;;;12.51;nan
48862;BME280;34681;49.188;-0.374;2022-11-28T01:28:40;100872.44;;;12.54;nan
48862;BME280;34681;49.188;-0.374;2022-11-28T01:31:08;100860.44;;;12.55;nan
48862;BME280;34681;49.188;-0.374;2022-11-28T01:33:34;100868.22;;;12.59;nan
48862;BME280;34681;49.188;-0.374;2022-11-28T01:36:00;100877.47;;;12.58;nan
48862;BME280;34681;49.188;-0.374;2022-11-28T01:38:26;100871.91;;;12.68;nan
48862;BME280;34681;49.188;-0.374;2022-11-28T01:40:52;100869.78;;;12.62;nan
48862;BME280;34681;49.188;-0.374;2022-11-28T01:43:18;100872.00;;;12.58;nan
48862;BME280;34681;49.188;-0.374;2022-11-28T01:45:43;100863.75;;;12.58;nan
48862;BME280;34681;49.188;-0.374;2022-11-28T01:48:11;100862.56;;;12.79;nan
48862;BME280;34681;49.188;-0.374;2022-11-28T01:50:38;100862.03;;;12.75;nan
48862;BME280;34681;49.188;-0.374;2022-11-28T01:53:07;100853.91;;;12.74;nan
48862;BME280;34681;49.188;-0.374;2022-11-28T01:55:41;100852.69;;;12.68;nan
48862;BME280;34681;49.188;-0.374;2022-11-28T01:58:08;100857.69;;;12.73;nan
48862;BME280;34681;49.188;-0.374;2022-11-28T02:00:35;100855.28;;;12.70;nan
48862;BME280;34681;49.188;-0.374;2022-11-28T02:03:05;100863.00;;;12.74;nan
48862;BME280;34681;49.188;-0.374;2022-11-28T02:05:33;100858.47;;;12.65;nan
48862;BME280;34681;49.188;-0.374;2022-11-28T02:07:59;100860.69;;;12.61;nan
48862;BME280;34681;49.188;-0.374;2022-11-28T02:10:27;100860.84;;;12.60;nan
48862;BME280;34681;49.188;-0.374;2022-11-28T02:15:47;100859.50;;;12.64;nan
48862;BME280;34681;49.188;-0.374;2022-11-28T02:34:45;100841.94;;;12.39;nan
48862;BME280;34681;49.188;-0.374;2022-11-28T02:45:35;100830.88;;;12.31;nan
48862;BME280;34681;49.188;-0.374;2022-11-28T02:48:03;100829.56;;;12.35;nan
48862;BME280;34681;49.188;-0.374;2022-11-28T02:50:36;100813.38;;;12.32;nan
48862;BME280;34681;49.188;-0.374;2022-11-28T02:53:09;100815.44;;;12.30;nan
48862;BME280;34681;49.188;-0.374;2022-11-28T02:55:40;100816.47;;;12.29;nan
48862;BME280;34681;49.188;-0.374;2022-11-28T02:58:09;100823.50;;;12.31;nan
48862;BME280;34681;49.188;-0.374;2022-11-28T03:00:37;100824.69;;;12.29;nan
48862;BME280;34681;49.188;-0.374;2022-11-28T03:11:19;100839.59;;;12.26;nan
48862;BME280;34681;49.188;-0.374;2022-11-28T03:16:34;100858.78;;;12.26;nan
48862;BME280;34681;49.188;-0.374;2022-11-28T03:19:26;100850.66;;;12.34;nan
48862;BME280;34681;49.188;-0.374;2022-11-28T03:22:09;100851.34;;;12.36;nan
48862;BME280;34681;49.188;-0.374;2022-11-28T03:24:42;100845.31;;;12.33;nan
48862;BME280;34681;49.188;-0.374;2022-11-28T03:27:24;100857.78;;;12.27;nan
48862;BME280;34681;49.188;-0.374;2022-11-28T03:29:55;100859.50;;;12.28;nan
48862;BME280;34681;49.188;-0.374;2022-11-28T03:32:28;100844.44;;;12.32;nan
48862;BME280;34681;49.188;-0.374;2022-11-28T03:35:28;100843.03;;;12.28;nan
48862;BME280;34681;49.188;-0.374;2022-11-28T03:38:03;100849.28;;;12.21;nan
48862;BME280;34681;49.188;-0.374;2022-11-28T03:40:36;100839.75;;;12.25;nan
48862;BME280;34681;49.188;-0.374;2022-11-28T03:43:07;100837.47;;;12.20;nan
48862;BME280;34681;49.188;-0.374;2022-11-28T03:45:40;100844.81;;;12.20;nan
48862;BME280;34681;49.188;-0.374;2022-11-28T03:48:21;100835.06;;;12.07;nan
48862;BME280;34681;49.188;-0.374;2022-11-28T03:51:01;100844.81;;;12.02;nan
48862;BME280;34681;49.188;-0.374;2022-11-28T03:53:35;100840.94;;;11.95;nan
48862;BME280;34681;49.188;-0.374;2022-11-28T03:56:10;100852.97;;;12.12;nan
48862;BME280;34681;49.188;-0.374;2022-11-28T03:58:51;100839.34;;;12.20;nan
48862;BME280;34681;49.188;-0.374;2022-11-28T04:01:35;100846.56;;;12.21;nan
48862;BME280;34681;49.188;-0.374;2022-11-28T04:04:14;100843.97;;;12.19;nan
48862;BME280;34681;49.188;-0.374;2022-11-28T04:06:54;100847.19;;;11.87;nan
48862;BME280;34681;49.188;-0.374;2022-11-28T04:09:38;100859.66;;;11.99;nan
48862;BME280;34681;49.188;-0.374;2022-11-28T04:12:12;100871.03;;;12.04;nan
48862;BME280;34681;49.188;-0.374;2022-11-28T04:17:31;100871.84;;;12.15;nan
48862;BME280;34681;49.188;-0.374;2022-11-28T04:22:32;100881.84;;;12.06;nan
48862;BME280;34681;49.188;-0.374;2022-11-28T04:25:03;100883.38;;;12.18;nan
48862;BME280;34681;49.188;-0.374;2022-11-28T04:27:34;100881.25;;;12.12;nan
48862;BME280;34681;49.188;-0.374;2022-11-28T04:30:03;100886.19;;;12.08;nan
48862;BME280;34681;49.188;-0.374;2022-11-28T04:32:31;100883.56;;;11.79;nan
48862;BME280;34681;49.188;-0.374;2022-11-28T04:35:05;100881.81;;;11.78;nan
48862;BME280;34681;49.188;-0.374;2022-11-28T04:37:33;100896.69;;;11.86;nan
48862;BME280;34681;49.188;-0.374;2022-11-28T04:40:01;100886.44;;;11.88;nan
48862;BME280;34681;49.188;-0.374;2022-11-28T04:42:40;100886.44;;;11.88;nan
48862;BME280;34681;49.188;-0.374;2022-11-28T04:48:12;100889.91;;;11.43;nan
48862;BME280;34681;49.188;-0.374;2022-11-28T04:53:37;100873.22;;;11.27;nan
48862;BME280;34681;49.188;-0.374;2022-11-28T04:56:11;100882.59;;;11.14;nan
48862;BME280;34681;49.188;-0.374;2022-11-28T04:58:41;100877.25;;;11.22;nan
48862;BME280;34681;49.188;-0.374;2022-11-28T05:01:10;100872.19;;;11.37;nan
48862;BME280;34681;49.188;-0.374;2022-11-28T05:03:38;100875.91;;;11.46;nan
48862;BME280;34681;49.188;-0.374;2022-11-28T05:06:05;100870.25;;;11.47;nan
48862;BME280;34681;49.188;-0.374;2022-11-28T05:08:31;100874.09;;;11.27;nan
48862;BME280;34681;49.188;-0.374;2022-11-28T05:10:57;100876.78;;;11.37;nan
48862;BME280;34681;49.188;-0.374;2022-11-28T05:13:22;100870.25;;;11.47;nan
48862;BME280;34681;49.188;-0.374;2022-11-28T05:15:49;100874.28;;;11.53;nan
48862;BME280;34681;49.188;-0.374;2022-11-28T05:18:14;100879.66;;;11.45;nan
48862;BME280;34681;49.188;-0.374;2022-11-28T05:20:40;100872.72;;;11.50;nan
48862;BME280;34681;49.188;-0.374;2022-11-28T05:23:06;100878.78;;;11.44;nan
48862;BME280;34681;49.188;-0.374;2022-11-28T05:25:31;100881.53;;;11.44;nan
48862;BME280;34681;49.188;-0.374;2022-11-28T05:27:56;100881.56;;;11.35;nan
48862;BME280;34681;49.188;-0.374;2022-11-28T05:30:22;100871.63;;;11.24;nan
48862;BME280;34681;49.188;-0.374;2022-11-28T05:32:47;100868.59;;;11.27;nan
48862;BME280;34681;49.188;-0.374;2022-11-28T05:35:12;100868.75;;;11.16;nan
48862;BME280;34681;49.188;-0.374;2022-11-28T05:37:38;100862.81;;;11.30;nan
48862;BME280;34681;49.188;-0.374;2022-11-28T05:40:05;100861.88;;;11.12;nan
48862;BME280;34681;49.188;-0.374;2022-11-28T05:42:32;100869.03;;;11.22;nan
48862;BME280;34681;49.188;-0.374;2022-11-28T05:44:58;100861.41;;;11.16;nan
48862;BME280;34681;49.188;-0.374;2022-11-28T05:47:24;100866.44;;;11.31;nan
48862;BME280;34681;49.188;-0.374;2022-11-28T05:49:49;100859.66;;;11.25;nan
48862;BME280;34681;49.188;-0.374;2022-11-28T05:52:15;100862.50;;;11.33;nan
48862;BME280;34681;49.188;-0.374;2022-11-28T05:54:40;100851.88;;;11.30;nan
48862;BME280;34681;49.188;-0.374;2022-11-28T05:57:05;100865.56;;;11.30;nan
48862;BME280;34681;49.188;-0.374;2022-11-28T05:59:31;100860.69;;;11.14;nan
48862;BME280;34681;49.188;-0.374;2022-11-28T06:01:57;100856.69;;;10.99;nan
48862;BME280;34681;49.188;-0.374;2022-11-28T06:04:22;100859.53;;;11.17;nan
48862;BME280;34681;49.188;-0.374;2022-11-28T06:06:49;100861.47;;;10.97;nan
48862;BME280;34681;49.188;-0.374;2022-11-28T06:09:15;100858.25;;;11.11;nan
48862;BME280;34681;49.188;-0.374;2022-11-28T06:11:40;100863.16;;;11.17;nan
48862;BME280;34681;49.188;-0.374;2022-11-28T06:14:06;100866.31;;;11.22;nan
48862;BME280;34681;49.188;-0.374;2022-11-28T06:16:32;100861.41;;;11.16;nan
48862;BME280;34681;49.188;-0.374;2022-11-28T06:18:59;100865.00;;;11.17;nan
48862;BME280;34681;49.188;-0.374;2022-11-28T06:21:26;100858.81;;;11.15;nan
48862;BME280;34681;49.188;-0.374;2022-11-28T06:23:52;100858.56;;;10.98;nan
48862;BME280;34681;49.188;-0.374;2022-11-28T06:26:20;100852.19;;;11.08;nan
48862;BME280;34681;49.188;-0.374;2022-11-28T06:28:46;100848.75;;;11.06;nan
48862;BME280;34681;49.188;-0.374;2022-11-28T06:31:19;100852.94;;;11.10;nan
48862;BME280;34681;49.188;-0.374;2022-11-28T06:33:45;100847.34;;;11.02;nan
48862;BME280;34681;49.188;-0.374;2022-11-28T06:36:12;100848.47;;;10.99;nan
48862;BME280;34681;49.188;-0.374;2022-11-28T06:38:38;100843.63;;;10.93;nan
48862;BME280;34681;49.188;-0.374;2022-11-28T06:41:06;100839.41;;;10.98;nan
48862;BME280;34681;49.188;-0.374;2022-11-28T06:43:55;100826.44;;;10.91;nan
48862;BME280;34681;49.188;-0.374;2022-11-28T06:46:21;100835.69;;;10.80;nan
48862;BME280;34681;49.188;-0.374;2022-11-28T06:48:49;100822.84;;;10.90;nan
48862;BME280;34681;49.188;-0.374;2022-11-28T06:51:16;100827.31;;;10.91;nan
48862;BME280;34681;49.188;-0.374;2022-11-28T06:53:42;100826.06;;;10.76;nan
48862;BME280;34681;49.188;-0.374;2022-11-28T06:56:12;100823.19;;;10.68;nan
48862;BME280;34681;49.188;-0.374;2022-11-28T06:58:38;100832.66;;;10.74;nan
48862;BME280;34681;49.188;-0.374;2022-11-28T07:01:25;100826.78;;;10.68;nan
48862;BME280;34681;49.188;-0.374;2022-11-28T07:03:51;100824.19;;;10.57;nan
48862;BME280;34681;49.188;-0.374;2022-11-28T07:06:19;100824.03;;;10.49;nan
48862;BME280;34681;49.188;-0.374;2022-11-28T07:08:45;100817.53;;;10.21;nan
48862;BME280;34681;49.188;-0.374;2022-11-28T07:13:44;100803.44;;;10.64;nan
48862;BME280;34681;49.188;-0.374;2022-11-28T07:16:19;100806.78;;;10.68;nan
48862;BME280;34681;49.188;-0.374;2022-11-28T07:18:44;100811.94;;;10.61;nan
48862;BME280;34681;49.188;-0.374;2022-11-28T07:21:10;100804.88;;;10.49;nan
48862;BME280;34681;49.188;-0.374;2022-11-28T07:23:36;100806.75;;;10.58;nan
48862;BME280;34681;49.188;-0.374;2022-11-28T07:26:02;100805.00;;;10.67;nan
48862;BME280;34681;49.188;-0.374;2022-11-28T07:28:29;100806.19;;;10.55;nan
48862;BME280;34681;49.188;-0.374;2022-11-28T07:31:06;100812.22;;;10.58;nan
48862;BME280;34681;49.188;-0.374;2022-11-28T07:33:33;100807.38;;;10.43;nan
48862;BME280;34681;49.188;-0.374;2022-11-28T07:36:23;100811.38;;;10.48;nan
48862;BME280;34681;49.188;-0.374;2022-11-28T07:38:51;100809.47;;;10.58;nan
48862;BME280;34681;49.188;-0.374;2022-11-28T07:41:18;100808.91;;;10.74;nan
48862;BME280;34681;49.188;-0.374;2022-11-28T07:43:45;100804.88;;;10.59;nan
48862;BME280;34681;49.188;-0.374;2022-11-28T07:46:13;100808.34;;;10.71;nan
48862;BME280;34681;49.188;-0.374;2022-11-28T07:48:38;100809.78;;;10.55;nan
48862;BME280;34681;49.188;-0.374;2022-11-28T07:51:05;100807.34;;;10.62;nan
48862;BME280;34681;49.188;-0.374;2022-11-28T07:53:31;100807.31;;;10.72;nan
48862;BME280;34681;49.188;-0.374;2022-11-28T07:56:01;100811.78;;;10.73;nan
48862;BME280;34681;49.188;-0.374;2022-11-28T07:58:27;100822.91;;;10.52;nan
48862;BME280;34681;49.188;-0.374;2022-11-28T08:00:53;100834.13;;;10.68;nan
48862;BME280;34681;49.188;-0.374;2022-11-28T08:03:18;100823.03;;;10.79;nan
48862;BME280;34681;49.188;-0.374;2022-11-28T08:05:43;100834.84;;;10.60;nan
48862;BME280;34681;49.188;-0.374;2022-11-28T08:08:17;100837.72;;;10.39;nan
48862;BME280;34681;49.188;-0.374;2022-11-28T08:10:43;100840.16;;;10.33;nan
48862;BME280;34681;49.188;-0.374;2022-11-28T08:13:09;100843.03;;;10.51;nan
48862;BME280;34681;49.188;-0.374;2022-11-28T08:15:36;100841.59;;;10.56;nan
48862;BME280;34681;49.188;-0.374;2022-11-28T08:18:01;100844.63;;;10.73;nan
48862;BME280;34681;49.188;-0.374;2022-11-28T08:20:27;100846.06;;;10.86;nan
48862;BME280;34681;49.188;-0.374;2022-11-28T08:22:53;100849.22;;;10.82;nan
48862;BME280;34681;49.188;-0.374;2022-11-28T08:25:18;100851.69;;;10.85;nan
48862;BME280;34681;49.188;-0.374;2022-11-28T08:27:43;100845.00;;;11.07;nan
48862;BME280;34681;49.188;-0.374;2022-11-28T08:30:09;100843.84;;;11.19;nan
48862;BME280;34681;49.188;-0.374;2022-11-28T08:32:34;100851.78;;;11.12;nan
48862;BME280;34681;49.188;-0.374;2022-11-28T08:35:00;100837.06;;;11.13;nan
48862;BME280;34681;49.188;-0.374;2022-11-28T08:37:27;100835.94;;;10.96;nan
48862;BME280;34681;49.188;-0.374;2022-11-28T08:39:52;100845.13;;;11.15;nan
48862;BME280;34681;49.188;-0.374;2022-11-28T08:42:18;100840.72;;;11.41;nan
48862;BME280;34681;49.188;-0.374;2022-11-28T08:44:43;100831.03;;;11.47;nan
48862;BME280;34681;49.188;-0.374;2022-11-28T08:47:08;100835.34;;;11.49;nan
48862;BME280;34681;49.188;-0.374;2022-11-28T08:49:35;100843.59;;;11.87;nan
48862;BME280;34681;49.188;-0.374;2022-11-28T08:52:02;100842.50;;;11.97;nan
48862;BME280;34681;49.188;-0.374;2022-11-28T08:54:27;100839.84;;;12.05;nan
48862;BME280;34681;49.188;-0.374;2022-11-28T08:56:52;100842.41;;;12.17;nan
48862;BME280;34681;49.188;-0.374;2022-11-28T08:59:18;100840.53;;;12.35;nan
48862;BME280;34681;49.188;-0.374;2022-11-28T09:01:43;100843.19;;;12.45;nan
48862;BME280;34681;49.188;-0.374;2022-11-28T09:04:08;100846.72;;;12.37;nan
48862;BME280;34681;49.188;-0.374;2022-11-28T09:06:34;100847.66;;;12.28;nan
48862;BME280;34681;49.188;-0.374;2022-11-28T09:09:00;100846.97;;;12.26;nan
48862;BME280;34681;49.188;-0.374;2022-11-28T09:11:27;100848.66;;;12.09;nan
48862;BME280;34681;49.188;-0.374;2022-11-28T09:13:52;100854.16;;;12.09;nan
48862;BME280;34681;49.188;-0.374;2022-11-28T09:16:17;100838.72;;;12.26;nan
48862;BME280;34681;49.188;-0.374;2022-11-28T09:18:43;100850.31;;;12.20;nan
48862;BME280;34681;49.188;-0.374;2022-11-28T09:21:11;100848.97;;;12.24;nan
48862;BME280;34681;49.188;-0.374;2022-11-28T09:23:38;100844.53;;;12.76;nan
48862;BME280;34681;49.188;-0.374;2022-11-28T09:26:09;100844.97;;;13.15;nan
48862;BME280;34681;49.188;-0.374;2022-11-28T09:28:35;100844.09;;;12.89;nan
48862;BME280;34681;49.188;-0.374;2022-11-28T09:31:03;100848.78;;;12.53;nan
48862;BME280;34681;49.188;-0.374;2022-11-28T09:33:28;100855.97;;;12.18;nan
48862;BME280;34681;49.188;-0.374;2022-11-28T09:35:54;100851.66;;;12.33;nan
48862;BME280;34681;49.188;-0.374;2022-11-28T09:38:21;100854.41;;;12.33;nan
48862;BME280;34681;49.188;-0.374;2022-11-28T09:40:46;100854.38;;;12.16;nan
48862;BME280;34681;49.188;-0.374;2022-11-28T09:43:22;100845.88;;;12.36;nan
48862;BME280;34681;49.188;-0.374;2022-11-28T09:45:51;100862.00;;;12.22;nan
48862;BME280;34681;49.188;-0.374;2022-11-28T09:48:44;100856.97;;;12.17;nan
48862;BME280;34681;49.188;-0.374;2022-11-28T09:56:19;100863.03;;;11.93;nan
48862;BME280;34681;49.188;-0.374;2022-11-28T09:58:57;100858.81;;;11.99;nan
48862;BME280;34681;49.188;-0.374;2022-11-28T10:04:01;100873.97;;;11.56;nan
48862;BME280;34681;49.188;-0.374;2022-11-28T10:20:11;100873.16;;;12.91;nan
48862;BME280;34681;49.188;-0.374;2022-11-28T10:25:37;100877.19;;;13.05;nan
48862;BME280;34681;49.188;-0.374;2022-11-28T10:28:06;100881.41;;;13.35;nan
48862;BME280;34681;49.188;-0.374;2022-11-28T10:30:37;100878.59;;;13.27;nan
48862;BME280;34681;49.188;-0.374;2022-11-28T10:33:18;100875.13;;;13.07;nan
48862;BME280;34681;49.188;-0.374;2022-11-28T10:35:59;100876.50;;;13.03;nan
48862;BME280;34681;49.188;-0.374;2022-11-28T10:38:27;100881.88;;;13.31;nan
48862;BME280;34681;49.188;-0.374;2022-11-28T10:43:44;100885.50;;;13.13;nan
48862;BME280;34681;49.188;-0.374;2022-11-28T10:52:43;100879.34;;;12.76;nan
48862;BME280;34681;49.188;-0.374;2022-11-28T10:55:41;100875.16;;;12.89;nan
48862;BME280;34681;49.188;-0.374;2022-11-28T10:58:22;100867.91;;;13.06;nan
48862;BME280;34681;49.188;-0.374;2022-11-28T11:00:51;100866.88;;;12.99;nan
48862;BME280;34681;49.188;-0.374;2022-11-28T11:03:18;100862.81;;;12.68;nan
48862;BME280;34681;49.188;-0.374;2022-11-28T11:05:43;100860.06;;;12.68;nan
48862;BME280;34681;49.188;-0.374;2022-11-28T11:10:50;100852.28;;;12.81;nan
48862;BME280;34681;49.188;-0.374;2022-11-28T11:13:20;100855.22;;;13.05;nan
48862;BME280;34681;49.188;-0.374;2022-11-28T11:15:57;100846.25;;;13.21;nan
48862;BME280;34681;49.188;-0.374;2022-11-28T11:18:29;100843.75;;;13.10;nan
48862;BME280;34681;49.188;-0.374;2022-11-28T11:21:21;100842.78;;;12.93;nan
48862;BME280;34681;49.188;-0.374;2022-11-28T11:23:48;100827.88;;;12.78;nan
48862;BME280;34681;49.188;-0.374;2022-11-28T11:26:27;100845.13;;;12.88;nan
48862;BME280;34681;49.188;-0.374;2022-11-28T11:28:54;100838.44;;;12.90;nan
48862;BME280;34681;49.188;-0.374;2022-11-28T11:34:02;100843.78;;;12.74;nan
48862;BME280;34681;49.188;-0.374;2022-11-28T11:36:38;100839.72;;;12.78;nan
48862;BME280;34681;49.188;-0.374;2022-11-28T11:39:22;100825.53;;;12.65;nan
48862;BME280;34681;49.188;-0.374;2022-11-28T11:42:10;100825.38;;;12.49;nan
48862;BME280;34681;49.188;-0.374;2022-11-28T11:44:36;100829.31;;;12.46;nan
48862;BME280;34681;49.188;-0.374;2022-11-28T11:47:07;100824.53;;;12.66;nan
48862;BME280;34681;49.188;-0.374;2022-11-28T11:49:35;100828.69;;;12.70;nan
48862;BME280;34681;49.188;-0.374;2022-11-28T11:52:10;100833.09;;;12.45;nan
48862;BME280;34681;49.188;-0.374;2022-11-28T11:57:24;100827.22;;;12.58;nan
48862;BME280;34681;49.188;-0.374;2022-11-28T12:00:06;100830.31;;;12.63;nan
48862;BME280;34681;49.188;-0.374;2022-11-28T12:02:57;100837.94;;;12.69;nan
48862;BME280;34681;49.188;-0.374;2022-11-28T12:05:33;100838.72;;;12.61;nan
48862;BME280;34681;49.188;-0.374;2022-11-28T12:11:24;100830.81;;;12.76;nan
48862;BME280;34681;49.188;-0.374;2022-11-28T12:13:51;100834.22;;;12.96;nan
48862;BME280;34681;49.188;-0.374;2022-11-28T12:16:41;100824.06;;;12.97;nan
48862;BME280;34681;49.188;-0.374;2022-11-28T12:19:14;100823.56;;;12.93;nan
48862;BME280;34681;49.188;-0.374;2022-11-28T12:22:24;100820.94;;;13.09;nan
48862;BME280;34681;49.188;-0.374;2022-11-28T12:37:23;100828.13;;;13.62;nan
48862;BME280;34681;49.188;-0.374;2022-11-28T12:45:34;100833.44;;;13.64;nan
48862;BME280;34681;49.188;-0.374;2022-11-28T12:53:54;100845.81;;;13.60;nan
48862;BME280;34681;49.188;-0.374;2022-11-28T13:04:54;100851.78;;;13.55;nan
48862;BME280;34681;49.188;-0.374;2022-11-28T13:10:44;100845.13;;;13.58;nan
48862;BME280;34681;49.188;-0.374;2022-11-28T13:18:57;100845.41;;;13.46;nan
48862;BME280;34681;49.188;-0.374;2022-11-28T13:21:39;100844.78;;;13.61;nan
48862;BME280;34681;49.188;-0.374;2022-11-28T13:29:51;100858.31;;;13.54;nan
48862;BME280;34681;49.188;-0.374;2022-11-28T13:35:11;100877.06;;;13.85;nan
48862;BME280;34681;49.188;-0.374;2022-11-28T13:43:06;100871.84;;;13.82;nan
48862;BME280;34681;49.188;-0.374;2022-11-28T13:45:41;100866.34;;;13.82;nan
48862;BME280;34681;49.188;-0.374;2022-11-28T13:53:40;100862.00;;;13.37;nan
48862;BME280;34681;49.188;-0.374;2022-11-28T14:01:14;100868.06;;;13.48;nan
48862;BME280;34681;49.188;-0.374;2022-11-28T14:06:15;100873.41;;;13.76;nan
48862;BME280;34681;49.188;-0.374;2022-11-28T14:08:43;100877.25;;;13.31;nan
48862;BME280;34681;49.188;-0.374;2022-11-28T14:11:29;100865.56;;;13.11;nan
48862;BME280;34681;49.188;-0.374;2022-11-28T14:14:17;100877.75;;;13.09;nan
48862;BME280;34681;49.188;-0.374;2022-11-28T14:25:26;100877.31;;;12.78;nan
48862;BME280;34681;49.188;-0.374;2022-11-28T14:28:04;100886.00;;;12.55;nan
48862;BME280;34681;49.188;-0.374;2022-11-28T14:30:37;100879.34;;;12.76;nan
48862;BME280;34681;49.188;-0.374;2022-11-28T14:33:20;100885.16;;;12.73;nan
48862;BME280;34681;49.188;-0.374;2022-11-28T14:41:02;100882.47;;;12.81;nan
48862;BME280;34681;49.188;-0.374;2022-11-28T14:43:36;100870.97;;;12.77;nan
48862;BME280;34681;49.188;-0.374;2022-11-28T14:48:43;100874.00;;;12.92;nan
48862;BME280;34681;49.188;-0.374;2022-11-28T14:54:22;100881.69;;;12.71;nan
48862;BME280;34681;49.188;-0.374;2022-11-28T14:56:51;100888.69;;;12.83;nan
48862;BME280;34681;49.188;-0.374;2022-11-28T14:59:17;100893.00;;;12.85;nan
48862;BME280;34681;49.188;-0.374;2022-11-28T15:15:21;100897.69;;;12.93;nan
48862;BME280;34681;49.188;-0.374;2022-11-28T15:17:49;100907.50;;;12.96;nan
48862;BME280;34681;49.188;-0.374;2022-11-28T15:20:38;100902.88;;;12.78;nan
48862;BME280;34681;49.188;-0.374;2022-11-28T15:23:30;100914.16;;;12.57;nan
48862;BME280;34681;49.188;-0.374;2022-11-28T15:25:57;100915.91;;;12.58;nan
48862;BME280;34681;49.188;-0.374;2022-11-28T15:28:24;100917.72;;;12.50;nan
48862;BME280;34681;49.188;-0.374;2022-11-28T15:30:53;100909.97;;;12.18;nan
48862;BME280;34681;49.188;-0.374;2022-11-28T15:33:20;100913.34;;;12.29;nan
48862;BME280;34681;49.188;-0.374;2022-11-28T15:38:24;100916.59;;;12.43;nan
48862;BME280;34681;49.188;-0.374;2022-11-28T15:40:52;100919.25;;;12.34;nan
48862;BME280;34681;49.188;-0.374;2022-11-28T15:43:18;100927.94;;;12.48;nan
48862;BME280;34681;49.188;-0.374;2022-11-28T15:45:49;100920.78;;;12.19;nan
48862;BME280;34681;49.188;-0.374;2022-11-28T15:48:25;100935.63;;;12.44;nan
48862;BME280;34681;49.188;-0.374;2022-11-28T15:50:52;100930.41;;;12.51;nan
48862;BME280;34681;49.188;-0.374;2022-11-28T15:53:19;100929.38;;;12.52;nan
48862;BME280;34681;49.188;-0.374;2022-11-28T15:55:45;100929.16;;;12.63;nan
48862;BME280;34681;49.188;-0.374;2022-11-28T15:58:19;100936.13;;;12.57;nan
48862;BME280;34681;49.188;-0.374;2022-11-28T16:03:42;100955.66;;;12.54;nan
48862;BME280;34681;49.188;-0.374;2022-11-28T16:06:09;100945.34;;;12.38;nan
48862;BME280;34681;49.188;-0.374;2022-11-28T16:08:39;100948.91;;;12.21;nan
48862;BME280;34681;49.188;-0.374;2022-11-28T16:11:06;100951.88;;;12.10;nan
48862;BME280;34681;49.188;-0.374;2022-11-28T16:13:33;100948.38;;;12.08;nan
48862;BME280;34681;49.188;-0.374;2022-11-28T16:16:01;100963.09;;;12.17;nan
48862;BME280;34681;49.188;-0.374;2022-11-28T16:18:28;100952.56;;;12.12;nan
48862;BME280;34681;49.188;-0.374;2022-11-28T16:20:56;100959.34;;;12.18;nan
48862;BME280;34681;49.188;-0.374;2022-11-28T16:23:32;100955.47;;;12.11;nan
48862;BME280;34681;49.188;-0.374;2022-11-28T16:26:01;100957.84;;;11.96;nan
48862;BME280;34681;49.188;-0.374;2022-11-28T16:28:36;100961.47;;;11.87;nan
48862;BME280;34681;49.188;-0.374;2022-11-28T16:31:17;100969.06;;;12.02;nan
48862;BME280;34681;49.188;-0.374;2022-11-28T16:33:44;100961.81;;;12.11;nan
48862;BME280;34681;49.188;-0.374;2022-11-28T16:38:47;100969.78;;;12.04;nan
48862;BME280;34681;49.188;-0.374;2022-11-28T16:41:23;100975.41;;;12.03;nan